F\v Tenia — FPMH — position and weather

sailwx.info

Track history (hours):
 
Tides and Currents Weather Stations Pressure Air Temp Water Temp Dewpoint Dewpoint Depression Visibility Wind Speed Wind Dir Waves Ship Positions

F\v Tenia

Last reported at 2017-Oct-16 06:09 UTC. Time now 2017-Oct-23 00:54 UTC.
Position N 43°27' W 003°50'.

Length 22 m; draft 4 m.

Type: Fishing. MMSI: 227575000.

Date/timePositionNaut miles runAvg speedWind from/ knotsBaromVisibWave heightAir tempDewpointWater temp
2017-Oct-16 06:09N 43°27' W 003°50'0 0.0
2017-Oct-16 06:00N 43°27' W 003°50'0 0.0
2017-Oct-16 05:29N 43°27' W 003°50'0 0.0
2017-Oct-16 04:59N 43°27' W 003°50'0 0.0
2017-Oct-15 14:43N 43°27' W 003°50'0 0.2
2017-Oct-15 14:00N 43°27' W 003°49'0 0.0
2017-Oct-15 13:25N 43°27' W 003°49'0 0.3
2017-Oct-15 13:00N 43°27' W 003°49'4 6.9
2017-Oct-15 12:29N 43°29' W 003°45'4 8.5
2017-Oct-15 12:01N 43°33' W 003°46'4 8.5
2017-Oct-15 11:30N 43°37' W 003°47'4 8.6
2017-Oct-15 11:00N 43°41' W 003°47'13 8.8
2017-Oct-15 09:29N 43°55' W 003°50'4 8.9
2017-Oct-15 09:00N 43°59' W 003°51'36 8.8
2017-Oct-15 04:52N 44°35' W 003°57'3 8.9
2017-Oct-15 04:29N 44°38' W 003°58'6 9.1
2017-Oct-15 03:51N 44°44' W 003°59'5 9.1
2017-Oct-15 03:16N 44°49' W 003°60'4 9.3
2017-Oct-15 02:49N 44°54' W 004°01'19 9.1
2017-Oct-15 00:46N 45°12' W 004°04'2 8.6
2017-Oct-15 00:30N 45°14' W 004°04'5 9.0
2017-Oct-14 23:56N 45°19' W 004°05'61 5.7
2017-Oct-14 13:11N 46°19' W 004°18'1 0.6
2017-Oct-14 12:18N 46°20' W 004°18'0 0.7
2017-Oct-14 12:00N 46°20' W 004°18'0 0.8
2017-Oct-14 11:30N 46°20' W 004°19'0 0.1
2017-Oct-14 11:01N 46°20' W 004°19'1 2.2
2017-Oct-14 10:31N 46°19' W 004°18'4 0.3
2017-Oct-13 23:09N 46°19' W 004°23'0 0.3
2017-Oct-13 22:56N 46°19' W 004°23'1 0.7
2017-Oct-13 21:28N 46°20' W 004°24'1 0.7
2017-Oct-13 20:27N 46°21' W 004°25'29 0.7
2017-Oct-12 04:24N 46°44' W 004°50'2 2.3
2017-Oct-12 03:30N 46°42' W 004°51'0 0.5
2017-Oct-12 02:26N 46°43' W 004°50'3 6.7
2017-Oct-12 02:00N 46°40' W 004°50'2 4.3
2017-Oct-12 01:30N 46°38' W 004°52'1 1.8
2017-Oct-12 00:57N 46°37' W 004°51'2 4.2
2017-Oct-12 00:27N 46°35' W 004°51'73 2.1
2017-Oct-10 12:51N 47°30' W 003°40'3 8.4
2017-Oct-10 12:30N 47°31' W 003°36'4 8.6
2017-Oct-10 12:01N 47°33' W 003°31'4 8.7
2017-Oct-10 11:30N 47°36' W 003°25'4 8.1
2017-Oct-10 11:01N 47°39' W 003°23'4 8.7
2017-Oct-10 10:30N 47°44' W 003°22'0 0.1
2017-Oct-10 10:00N 47°44' W 003°22'0 0.0
2017-Oct-10 09:30N 47°44' W 003°22'0 0.0
2017-Oct-10 09:01N 47°44' W 003°22'0 0.1
2017-Oct-10 08:30N 47°44' W 003°22'0 0.1
2017-Oct-10 08:00N 47°44' W 003°22'0 0.0
2017-Oct-10 07:31N 47°44' W 003°22'0 0.0
2017-Oct-10 07:00N 47°44' W 003°22'0 0.0
2017-Oct-10 06:30N 47°44' W 003°22'0 0.0
2017-Oct-10 06:01N 47°44' W 003°22'4 7.3
2017-Oct-10 05:31N 47°40' W 003°22'4 8.6
2017-Oct-10 05:00N 47°36' W 003°24'5 9.3
2017-Oct-10 04:30N 47°33' W 003°30'5 9.3
2017-Oct-10 04:00N 47°31' W 003°36'5 9.4
2017-Oct-10 03:30N 47°28' W 003°42'6 9.5
2017-Oct-10 02:49N 47°24' W 003°50'8 9.5
2017-Oct-10 02:00N 47°20' W 003°59'26 0.5
2017-Oct-07 23:05N 47°10' W 004°34'1 7.6
2017-Oct-07 23:00N 47°10' W 004°35'4 7.4
2017-Oct-07 22:29N 47°09' W 004°41'15 7.4
2017-Oct-07 20:27N 47°22' W 004°28'1 1.1
2017-Oct-07 20:01N 47°22' W 004°28'1 1.1
2017-Oct-07 19:31N 47°22' W 004°27'1 1.0
2017-Oct-07 18:59N 47°22' W 004°26'0 1.0
2017-Oct-07 18:31N 47°22' W 004°25'1 1.3
2017-Oct-07 17:53N 47°22' W 004°24'0 1.2
2017-Oct-07 17:29N 47°22' W 004°24'0 1.0
2017-Oct-07 17:00N 47°22' W 004°23'1 1.0
2017-Oct-07 16:27N 47°22' W 004°22'0 0.7
2017-Oct-07 16:00N 47°22' W 004°22'4 7.7
2017-Oct-07 15:27N 47°21' W 004°28'0 0.4
2017-Oct-07 14:59N 47°21' W 004°28'1 1.1
2017-Oct-07 14:30N 47°21' W 004°27'1 1.1
2017-Oct-07 13:58N 47°21' W 004°26'3 1.0
2017-Oct-07 10:49N 47°21' W 004°22'1 4.1
2017-Oct-07 10:29N 47°22' W 004°24'1 1.9
2017-Oct-07 09:59N 47°22' W 004°25'1 2.9
2017-Oct-07 09:30N 47°21' W 004°23'0 1.0
2017-Oct-07 09:00N 47°21' W 004°23'0 0.1
2017-Oct-07 08:30N 47°21' W 004°23'2 4.3
2017-Oct-07 08:01N 47°21' W 004°26'0 0.1
2017-Oct-07 07:25N 47°21' W 004°26'0 0.4
2017-Oct-07 06:59N 47°21' W 004°26'0 0.6
2017-Oct-07 06:29N 47°21' W 004°26'0 1.0
2017-Oct-07 06:00N 47°21' W 004°25'0 0.4
2017-Oct-07 05:30N 47°21' W 004°25'0 0.7
2017-Oct-07 04:59N 47°21' W 004°25'0 0.7
2017-Oct-07 04:26N 47°21' W 004°26'0 0.7
2017-Oct-07 04:00N 47°22' W 004°26'2 3.4
2017-Oct-07 03:30N 47°22' W 004°28'3 5.4
2017-Oct-07 02:59N 47°22' W 004°24'1 1.4
2017-Oct-07 02:24N 47°21' W 004°24'3 7.2
2017-Oct-07 01:58N 47°21' W 004°29'11 8.4
2017-Oct-07 00:40N 47°10' W 004°32'2 3.8
2017-Oct-07 00:15N 47°09' W 004°32'  
Track history (hours):
 
Tides and Currents Weather Stations Pressure Air Temp Water Temp Dewpoint Dewpoint Depression Visibility Wind Speed Wind Dir Waves Ship Positions

F\v Tenia

Last reported at 2017-Oct-16 06:09 UTC. Time now 2017-Oct-23 00:54 UTC.
Position N 43°27' W 003°50'.

Length 22 m; draft 4 m.

Type: Fishing. MMSI: 227575000.

Date/timePositionNaut miles runAvg speedWind from/ knotsBaromVisibWave heightAir tempDewpointWater temp
2017-Oct-16 06:09N 43°27' W 003°50'0 0.0
2017-Oct-16 06:00N 43°27' W 003°50'0 0.0
2017-Oct-16 05:29N 43°27' W 003°50'0 0.0
2017-Oct-16 04:59N 43°27' W 003°50'0 0.0
2017-Oct-15 14:43N 43°27' W 003°50'0 0.2
2017-Oct-15 14:00N 43°27' W 003°49'0 0.0
2017-Oct-15 13:25N 43°27' W 003°49'0 0.3
2017-Oct-15 13:00N 43°27' W 003°49'4 6.9
2017-Oct-15 12:29N 43°29' W 003°45'4 8.5
2017-Oct-15 12:01N 43°33' W 003°46'4 8.5
2017-Oct-15 11:30N 43°37' W 003°47'4 8.6
2017-Oct-15 11:00N 43°41' W 003°47'13 8.8
2017-Oct-15 09:29N 43°55' W 003°50'4 8.9
2017-Oct-15 09:00N 43°59' W 003°51'36 8.8
2017-Oct-15 04:52N 44°35' W 003°57'3 8.9
2017-Oct-15 04:29N 44°38' W 003°58'6 9.1
2017-Oct-15 03:51N 44°44' W 003°59'5 9.1
2017-Oct-15 03:16N 44°49' W 003°60'4 9.3
2017-Oct-15 02:49N 44°54' W 004°01'19 9.1
2017-Oct-15 00:46N 45°12' W 004°04'2 8.6
2017-Oct-15 00:30N 45°14' W 004°04'5 9.0
2017-Oct-14 23:56N 45°19' W 004°05'61 5.7
2017-Oct-14 13:11N 46°19' W 004°18'1 0.6
2017-Oct-14 12:18N 46°20' W 004°18'0 0.7
2017-Oct-14 12:00N 46°20' W 004°18'0 0.8
2017-Oct-14 11:30N 46°20' W 004°19'0 0.1
2017-Oct-14 11:01N 46°20' W 004°19'1 2.2
2017-Oct-14 10:31N 46°19' W 004°18'4 0.3
2017-Oct-13 23:09N 46°19' W 004°23'0 0.3
2017-Oct-13 22:56N 46°19' W 004°23'1 0.7
2017-Oct-13 21:28N 46°20' W 004°24'1 0.7
2017-Oct-13 20:27N 46°21' W 004°25'29 0.7
2017-Oct-12 04:24N 46°44' W 004°50'2 2.3
2017-Oct-12 03:30N 46°42' W 004°51'0 0.5
2017-Oct-12 02:26N 46°43' W 004°50'3 6.7
2017-Oct-12 02:00N 46°40' W 004°50'2 4.3
2017-Oct-12 01:30N 46°38' W 004°52'1 1.8
2017-Oct-12 00:57N 46°37' W 004°51'2 4.2
2017-Oct-12 00:27N 46°35' W 004°51'73 2.1
2017-Oct-10 12:51N 47°30' W 003°40'3 8.4
2017-Oct-10 12:30N 47°31' W 003°36'4 8.6
2017-Oct-10 12:01N 47°33' W 003°31'4 8.7
2017-Oct-10 11:30N 47°36' W 003°25'4 8.1
2017-Oct-10 11:01N 47°39' W 003°23'4 8.7
2017-Oct-10 10:30N 47°44' W 003°22'0 0.1
2017-Oct-10 10:00N 47°44' W 003°22'0 0.0
2017-Oct-10 09:30N 47°44' W 003°22'0 0.0
2017-Oct-10 09:01N 47°44' W 003°22'0 0.1
2017-Oct-10 08:30N 47°44' W 003°22'0 0.1
2017-Oct-10 08:00N 47°44' W 003°22'0 0.0
2017-Oct-10 07:31N 47°44' W 003°22'0 0.0
2017-Oct-10 07:00N 47°44' W 003°22'0 0.0
2017-Oct-10 06:30N 47°44' W 003°22'0 0.0
2017-Oct-10 06:01N 47°44' W 003°22'4 7.3
2017-Oct-10 05:31N 47°40' W 003°22'4 8.6
2017-Oct-10 05:00N 47°36' W 003°24'5 9.3
2017-Oct-10 04:30N 47°33' W 003°30'5 9.3
2017-Oct-10 04:00N 47°31' W 003°36'5 9.4
2017-Oct-10 03:30N 47°28' W 003°42'6 9.5
2017-Oct-10 02:49N 47°24' W 003°50'8 9.5
2017-Oct-10 02:00N 47°20' W 003°59'26 0.5
2017-Oct-07 23:05N 47°10' W 004°34'1 7.6
2017-Oct-07 23:00N 47°10' W 004°35'4 7.4
2017-Oct-07 22:29N 47°09' W 004°41'15 7.4
2017-Oct-07 20:27N 47°22' W 004°28'1 1.1
2017-Oct-07 20:01N 47°22' W 004°28'1 1.1
2017-Oct-07 19:31N 47°22' W 004°27'1 1.0
2017-Oct-07 18:59N 47°22' W 004°26'0 1.0
2017-Oct-07 18:31N 47°22' W 004°25'1 1.3
2017-Oct-07 17:53N 47°22' W 004°24'0 1.2
2017-Oct-07 17:29N 47°22' W 004°24'0 1.0
2017-Oct-07 17:00N 47°22' W 004°23'1 1.0
2017-Oct-07 16:27N 47°22' W 004°22'0 0.7
2017-Oct-07 16:00N 47°22' W 004°22'4 7.7
2017-Oct-07 15:27N 47°21' W 004°28'0 0.4
2017-Oct-07 14:59N 47°21' W 004°28'1 1.1
2017-Oct-07 14:30N 47°21' W 004°27'1 1.1
2017-Oct-07 13:58N 47°21' W 004°26'3 1.0
2017-Oct-07 10:49N 47°21' W 004°22'1 4.1
2017-Oct-07 10:29N 47°22' W 004°24'1 1.9
2017-Oct-07 09:59N 47°22' W 004°25'1 2.9
2017-Oct-07 09:30N 47°21' W 004°23'0 1.0
2017-Oct-07 09:00N 47°21' W 004°23'0 0.1
2017-Oct-07 08:30N 47°21' W 004°23'2 4.3
2017-Oct-07 08:01N 47°21' W 004°26'0 0.1
2017-Oct-07 07:25N 47°21' W 004°26'0 0.4
2017-Oct-07 06:59N 47°21' W 004°26'0 0.6
2017-Oct-07 06:29N 47°21' W 004°26'0 1.0
2017-Oct-07 06:00N 47°21' W 004°25'0 0.4
2017-Oct-07 05:30N 47°21' W 004°25'0 0.7
2017-Oct-07 04:59N 47°21' W 004°25'0 0.7
2017-Oct-07 04:26N 47°21' W 004°26'0 0.7
2017-Oct-07 04:00N 47°22' W 004°26'2 3.4
2017-Oct-07 03:30N 47°22' W 004°28'3 5.4
2017-Oct-07 02:59N 47°22' W 004°24'1 1.4
2017-Oct-07 02:24N 47°21' W 004°24'3 7.2
2017-Oct-07 01:58N 47°21' W 004°29'11 8.4
2017-Oct-07 00:40N 47°10' W 004°32'2 3.8
2017-Oct-07 00:15N 47°09' W 004°32'  

Dump ship's entire track history